createdAt,value
2022-12-08T00:02:20.725Z,91.11
2022-12-08T00:06:26.009Z,90.83
2022-12-08T00:10:48.351Z,90.30
2022-12-08T00:14:50.189Z,90.01
2022-12-08T00:18:51.527Z,91.62
2022-12-08T00:22:52.855Z,91.92
2022-12-08T00:26:54.175Z,92.53
2022-12-08T00:30:56.918Z,92.76
2022-12-08T00:34:58.267Z,92.67
2022-12-08T00:38:59.745Z,92.77
2022-12-08T00:43:01.073Z,92.95
2022-12-08T00:47:03.887Z,92.77
2022-12-08T00:51:05.345Z,92.39
2022-12-08T00:55:06.956Z,92.77
2022-12-08T00:59:08.285Z,92.97
2022-12-08T01:03:11.327Z,92.65
2022-12-08T01:07:12.720Z,92.49
2022-12-08T01:11:17.819Z,92.66
2022-12-08T01:15:19.198Z,92.52
2022-12-08T01:19:21.897Z,92.31
2022-12-08T01:23:23.208Z,92.56
2022-12-08T01:27:24.544Z,92.46
2022-12-08T01:31:25.974Z,93.16
2022-12-08T01:35:28.697Z,92.83
2022-12-08T01:39:30.035Z,93.06
2022-12-08T01:43:48.211Z,93.47
2022-12-08T01:47:51.706Z,93.16
2022-12-08T01:51:56.466Z,92.95
2022-12-08T01:55:59.407Z,92.87
2022-12-08T02:00:02.756Z,93.18
2022-12-08T02:04:04.690Z,93.12
2022-12-08T02:08:08.695Z,93.71
2022-12-08T02:12:10.314Z,93.18
2022-12-08T02:16:17.588Z,93.54
2022-12-08T02:20:41.239Z,94.08
2022-12-08T02:24:48.138Z,93.41
2022-12-08T02:29:05.252Z,93.56
2022-12-08T02:33:19.016Z,93.41
2022-12-08T02:37:26.386Z,93.45
2022-12-08T02:41:31.964Z,93.81
2022-12-08T02:45:36.486Z,93.88
2022-12-08T02:49:37.810Z,93.23
2022-12-08T02:53:41.134Z,93.12
2022-12-08T02:57:48.166Z,93.12
2022-12-08T03:02:02.041Z,93.15
2022-12-08T03:06:06.436Z,93.35
2022-12-08T03:10:10.662Z,93.73
2022-12-08T03:14:14.153Z,93.60
2022-12-08T03:18:16.537Z,93.74
2022-12-08T03:22:21.961Z,93.66
2022-12-08T03:26:25.334Z,93.37
2022-12-08T03:30:28.393Z,93.41
2022-12-08T03:34:29.874Z,93.21
2022-12-08T03:38:37.383Z,92.66
2022-12-08T03:42:40.183Z,92.51
2022-12-08T03:46:41.546Z,92.70
2022-12-08T03:50:42.891Z,92.63
2022-12-08T03:54:44.246Z,92.21
2022-12-08T03:58:47.032Z,93.00
2022-12-08T04:02:48.453Z,92.65
2022-12-08T04:06:49.951Z,92.95
2022-12-08T04:10:51.302Z,93.60
2022-12-08T04:14:54.049Z,93.10
2022-12-08T04:18:55.559Z,92.22
2022-12-08T04:22:56.980Z,92.06
2022-12-08T04:26:58.664Z,92.10
2022-12-08T04:31:01.653Z,90.86
2022-12-08T04:35:03.088Z,91.75
2022-12-08T04:39:04.475Z,92.42
2022-12-08T04:43:06.067Z,91.93
2022-12-08T04:47:08.836Z,90.80
2022-12-08T04:51:14.253Z,89.79
2022-12-08T04:55:15.648Z,90.15
2022-12-08T04:59:17.072Z,90.64
2022-12-08T05:03:25.240Z,89.28
2022-12-08T05:07:29.838Z,88.67
2022-12-08T05:11:31.202Z,90.28
2022-12-08T05:15:32.599Z,90.87
2022-12-08T05:19:35.392Z,90.87
2022-12-08T05:23:37.048Z,90.92
2022-12-08T05:27:38.456Z,89.69
2022-12-08T05:31:39.882Z,90.15
2022-12-08T05:35:42.696Z,90.39
2022-12-08T05:39:44.117Z,89.62
2022-12-08T05:43:45.568Z,89.81
2022-12-08T05:47:46.970Z,90.27
2022-12-08T05:51:49.775Z,89.87
2022-12-08T05:55:51.185Z,90.09
2022-12-08T05:59:52.579Z,89.69
2022-12-08T06:03:54.360Z,89.95
2022-12-08T06:07:57.175Z,89.59
2022-12-08T06:11:58.577Z,89.11
2022-12-08T06:16:03.173Z,88.84
2022-12-08T06:20:05.548Z,89.28
2022-12-08T06:24:08.751Z,89.19
2022-12-08T06:28:10.106Z,89.00
2022-12-08T06:32:11.540Z,89.79
2022-12-08T06:36:13.840Z,89.50
2022-12-08T06:40:16.702Z,89.31
2022-12-08T06:44:18.081Z,89.85
2022-12-08T06:48:19.596Z,90.00
2022-12-08T06:52:20.994Z,91.06
2022-12-08T06:56:23.745Z,90.06
2022-12-08T07:00:25.311Z,89.69
2022-12-08T07:04:26.832Z,90.65
2022-12-08T07:08:28.263Z,90.56
2022-12-08T07:12:31.085Z,90.46
2022-12-08T07:16:32.568Z,90.30
2022-12-08T07:20:34.036Z,90.29
2022-12-08T07:24:35.428Z,90.06
2022-12-08T07:28:38.609Z,90.62
2022-12-08T07:32:40.322Z,90.32
2022-12-08T07:36:41.716Z,90.17
2022-12-08T07:40:43.098Z,90.14
2022-12-08T07:44:45.841Z,90.24
2022-12-08T07:48:47.222Z,90.88
2022-12-08T07:52:48.783Z,91.40
2022-12-08T07:56:50.174Z,91.49
2022-12-08T08:00:53.326Z,91.13
2022-12-08T08:04:54.878Z,91.60
2022-12-08T08:08:56.311Z,91.36
2022-12-08T08:12:58.323Z,90.82
2022-12-08T08:17:01.237Z,90.59
2022-12-08T08:21:15.756Z,90.41
2022-12-08T08:25:23.718Z,90.01
2022-12-08T08:29:25.110Z,89.73
2022-12-08T08:33:27.908Z,90.09
2022-12-08T08:46:30.217Z,90.80
2022-12-08T08:50:37.316Z,91.20
2022-12-08T08:54:39.215Z,91.15
2022-12-08T08:58:40.809Z,91.38
2022-12-08T09:02:42.140Z,90.95
2022-12-08T09:06:44.830Z,90.40
2022-12-08T09:10:46.210Z,90.64
2022-12-08T09:14:47.574Z,90.50
2022-12-08T09:18:48.945Z,90.27
2022-12-08T09:22:51.659Z,90.09
2022-12-08T09:26:53.140Z,89.28
2022-12-08T09:30:54.500Z,89.14
2022-12-08T09:34:55.856Z,89.34
2022-12-08T09:38:58.577Z,88.82
2022-12-08T09:43:04.860Z,89.21
2022-12-08T09:47:12.700Z,89.09
2022-12-08T09:51:14.749Z,88.74
2022-12-08T09:55:20.598Z,88.53
2022-12-08T09:59:23.180Z,88.78
2022-12-08T10:03:27.014Z,88.64
2022-12-08T10:07:33.638Z,87.94
2022-12-08T10:11:40.654Z,87.63
2022-12-08T10:15:46.823Z,87.22
2022-12-08T10:19:49.861Z,87.16
2022-12-08T10:23:53.353Z,86.17
2022-12-08T10:27:56.673Z,85.45
2022-12-08T10:32:00.391Z,86.31
2022-12-08T10:36:01.835Z,86.29
2022-12-08T10:40:06.439Z,85.88
2022-12-08T10:44:09.827Z,86.54
2022-12-08T10:48:14.739Z,85.73
2022-12-08T10:52:22.686Z,85.74
2022-12-08T10:56:28.366Z,87.07
2022-12-08T11:00:31.245Z,85.80
2022-12-08T11:04:34.646Z,86.04
2022-12-08T11:08:44.182Z,86.45
2022-12-08T11:12:45.651Z,85.93
2022-12-08T11:16:49.216Z,85.71
2022-12-08T11:20:56.810Z,85.39
2022-12-08T11:25:02.191Z,86.03
2022-12-08T11:29:03.652Z,85.68
2022-12-08T11:33:18.385Z,85.86
2022-12-08T11:37:23.549Z,85.19
2022-12-08T11:41:27.337Z,84.39
2022-12-08T11:45:32.008Z,83.69
2022-12-08T11:49:36.553Z,83.89
2022-12-08T11:53:42.524Z,84.31
2022-12-08T11:57:44.800Z,83.73
2022-12-08T12:01:46.296Z,83.50
2022-12-08T12:06:13.580Z,83.89
2022-12-08T12:10:26.461Z,83.62
2022-12-08T12:14:39.074Z,83.45
2022-12-08T12:18:42.121Z,84.31
2022-12-08T12:22:46.658Z,83.51
2022-12-08T12:26:55.205Z,84.32
2022-12-08T12:30:59.431Z,83.05
2022-12-08T12:35:01.026Z,83.25
2022-12-08T12:39:03.857Z,83.00
2022-12-08T12:43:12.216Z,84.54
2022-12-08T12:47:33.904Z,83.45
2022-12-08T12:51:44.698Z,82.86
2022-12-08T12:55:55.100Z,82.65
2022-12-08T13:00:08.126Z,83.31
2022-12-08T13:04:10.153Z,82.82
2022-12-08T13:08:19.282Z,83.43
2022-12-08T13:12:23.459Z,83.81
2022-12-08T13:16:26.070Z,84.44
2022-12-08T13:20:27.756Z,83.62
2022-12-08T13:24:34.842Z,84.74
2022-12-08T13:28:51.093Z,85.21
2022-12-08T13:33:17.149Z,85.63
2022-12-08T13:37:20.714Z,85.79
2022-12-08T13:41:26.248Z,85.96
2022-12-08T13:46:10.916Z,86.32
2022-12-08T13:55:12.249Z,85.88
2022-12-08T13:58:41.386Z,86.30
2022-12-08T14:02:47.863Z,86.34
2022-12-08T14:06:51.233Z,85.85
2022-12-08T14:10:57.210Z,85.80
2022-12-08T14:15:04.066Z,86.05
2022-12-08T14:19:16.028Z,86.17
2022-12-08T14:23:17.436Z,87.04
2022-12-08T14:27:20.289Z,87.81
2022-12-08T14:31:23.750Z,87.52
2022-12-08T14:35:26.773Z,87.76
2022-12-08T14:39:28.185Z,87.69
2022-12-08T14:43:30.290Z,87.13
2022-12-08T14:47:34.221Z,87.43
2022-12-08T14:51:35.621Z,87.35
2022-12-08T14:55:37.291Z,88.18
2022-12-08T14:59:39.177Z,88.17
2022-12-08T15:03:44.663Z,88.22
2022-12-08T15:07:51.437Z,88.16
2022-12-08T15:12:00.113Z,87.50
2022-12-08T15:16:01.474Z,88.28
2022-12-08T15:20:05.193Z,88.71
2022-12-08T15:24:09.323Z,88.90
2022-12-08T15:28:11.820Z,88.86
2022-12-08T15:32:13.382Z,88.76
2022-12-08T15:36:16.160Z,89.14
2022-12-08T15:40:18.364Z,89.18
2022-12-08T15:44:19.754Z,89.55
2022-12-08T15:48:22.355Z,88.55
2022-12-08T15:52:25.305Z,89.83
2022-12-08T15:56:28.008Z,90.10
2022-12-08T16:09:18.259Z,91.11
2022-12-08T16:13:56.010Z,91.43
2022-12-08T16:17:41.990Z,91.64
2022-12-08T16:26:23.937Z,91.59
2022-12-08T16:30:27.610Z,91.72
2022-12-08T16:34:28.974Z,91.84
2022-12-08T16:38:30.396Z,91.92
2022-12-08T16:42:34.514Z,91.40
2022-12-08T16:46:35.926Z,91.87
2022-12-08T16:50:37.285Z,92.29
2022-12-08T16:54:38.658Z,92.52
2022-12-08T16:58:41.402Z,93.29
2022-12-08T17:02:43.072Z,93.24
2022-12-08T17:06:44.442Z,93.22
2022-12-08T17:10:45.811Z,93.22
2022-12-08T17:14:48.554Z,92.75
2022-12-08T17:18:50.152Z,92.80
2022-12-08T17:22:53.390Z,92.69
2022-12-08T17:26:55.023Z,92.89
2022-12-08T17:30:57.918Z,93.49
2022-12-08T17:34:59.283Z,93.59
2022-12-08T17:39:00.703Z,93.61
2022-12-08T17:43:02.083Z,93.56
2022-12-08T17:47:05.179Z,93.03
2022-12-08T17:51:09.126Z,92.88
2022-12-08T17:55:10.504Z,92.29
2022-12-08T17:59:12.461Z,92.85
2022-12-08T18:03:15.451Z,93.12
2022-12-08T18:07:16.900Z,93.06
2022-12-08T18:11:19.490Z,92.54
2022-12-08T18:15:21.312Z,92.17
2022-12-08T18:19:24.159Z,92.35
2022-12-08T18:23:25.539Z,92.43
2022-12-08T18:27:26.997Z,92.45
2022-12-08T18:31:28.537Z,92.64
2022-12-08T18:35:31.375Z,91.98
2022-12-08T18:39:32.875Z,92.30
2022-12-08T18:43:34.381Z,92.47
2022-12-08T18:47:37.024Z,91.86
2022-12-08T18:51:39.786Z,92.48
2022-12-08T18:55:41.151Z,92.64
2022-12-08T18:59:42.563Z,93.17
2022-12-08T19:04:04.775Z,93.04
2022-12-08T19:08:06.841Z,92.59
2022-12-08T19:12:08.301Z,91.98
2022-12-08T19:16:09.802Z,92.69
2022-12-08T19:20:11.720Z,92.18
2022-12-08T19:24:14.503Z,93.00
2022-12-08T19:28:15.915Z,93.31
2022-12-08T19:32:17.321Z,93.57
2022-12-08T19:36:20.166Z,93.29
2022-12-08T19:40:23.004Z,92.64
2022-12-08T19:44:25.561Z,92.86
2022-12-08T19:48:26.958Z,92.11
2022-12-08T19:52:28.327Z,92.49
2022-12-08T19:56:31.054Z,92.06
2022-12-08T20:00:32.914Z,93.19
2022-12-08T20:04:34.292Z,92.73
2022-12-08T20:08:35.733Z,93.48
2022-12-08T20:12:38.624Z,93.29
2022-12-08T20:16:40.079Z,92.32
2022-12-08T20:20:42.090Z,92.53
2022-12-08T20:24:43.486Z,92.72
2022-12-08T20:28:46.270Z,93.02
2022-12-08T20:32:47.646Z,93.13
2022-12-08T20:36:49.104Z,93.24
2022-12-08T20:40:50.523Z,93.15
2022-12-08T20:44:53.294Z,93.25
2022-12-08T20:48:55.366Z,92.94
2022-12-08T20:52:56.821Z,92.60
2022-12-08T20:56:58.231Z,92.51
2022-12-08T21:01:01.205Z,92.54
2022-12-08T21:05:02.780Z,91.30
2022-12-08T21:09:04.332Z,92.13
2022-12-08T21:13:05.959Z,92.34
2022-12-08T21:17:08.810Z,92.31
2022-12-08T21:21:11.322Z,92.51
2022-12-08T21:25:12.700Z,93.14
2022-12-08T21:29:14.089Z,93.02
2022-12-08T21:33:16.956Z,93.05
2022-12-08T21:37:18.385Z,92.68
2022-12-08T21:41:20.986Z,92.42
2022-12-08T21:45:22.348Z,92.59
2022-12-08T21:49:25.123Z,92.43
2022-12-08T21:53:26.600Z,93.03
2022-12-08T21:57:28.209Z,93.39
2022-12-08T22:01:29.754Z,93.63
2022-12-08T22:05:32.811Z,93.46
2022-12-08T22:09:34.794Z,93.58
2022-12-08T22:13:37.012Z,93.68
2022-12-08T22:17:39.445Z,93.36
2022-12-08T22:21:42.836Z,93.02
2022-12-08T22:25:44.426Z,92.24
2022-12-08T22:29:46.816Z,93.24
2022-12-08T22:33:49.026Z,93.42
2022-12-08T22:37:52.096Z,93.12
2022-12-08T22:41:53.695Z,92.96
2022-12-08T22:45:55.315Z,93.48
2022-12-08T22:49:57.088Z,94.03
2022-12-08T22:54:00.270Z,93.42
2022-12-08T22:58:01.690Z,94.01
2022-12-08T23:02:03.155Z,93.74
2022-12-08T23:06:11.620Z,94.20
2022-12-08T23:10:14.583Z,94.44
2022-12-08T23:14:16.057Z,94.15
2022-12-08T23:18:18.043Z,94.03
2022-12-08T23:22:19.404Z,94.12
2022-12-08T23:26:23.347Z,93.74
2022-12-08T23:30:25.393Z,92.15
2022-12-08T23:34:26.824Z,91.91
2022-12-08T23:38:28.255Z,92.67
2022-12-08T23:42:31.025Z,93.40
2022-12-08T23:46:32.725Z,93.78
2022-12-08T23:50:34.424Z,94.24
2022-12-08T23:54:35.894Z,94.17
2022-12-08T23:58:39.275Z,93.74
